Hobart Regional Airport
KHBR : now visible

Airfield :











YOU CAN JOIN US ON...

 
LOGIN :

Register | Disclaimer

   EN    FR    IT 

 









Legend :    VFR   Marginal VFR   IFR   Intensive IFR   Very Intensive IFR
Visi :
Ceiling :
>= 8 km
>= 3000ft
5 to 8 km
1000 to 3000 ft
1500m to 5 km
500 to 1000 ft
800 to 1500m
200 to 500 ft
< 800m
< 200 ft
Symbols :   Thunderstorms  Fog  Heavy snow  Heavy precipitations  Wind > 20 kt






- Airport Elevation : 1563 ft


KHBR - Hobart Regional

CURRENT METAR :
  • 282153Z AUTO 01021G27KT 10SM OVC013 03/01 A2991 RMK AO2 PK WND 02031/2118 UPE16 SLP130 P0001 T00280006

EXPIRED METARs :
  • 282053Z AUTO 01024G31KT 7SM UP OVC011 02/01 A2988 RMK AO2 PK WND 01031/2053 RAE40UPB40 SLP123 P0003 60017 T00220006 55004
  • 281953Z AUTO 01021G27KT 3SM RA BR BKN010 BKN019 OVC025 02/01 A2987 RMK AO2 PK WND 01029/1912 SLP119 P0008 T00220006
  • 281918Z AUTO 01022G29KT 4SM -RA BR OVC010 02/01 A2988 RMK AO2 PK WND 01029/1912 CIG 008V013 P0003 T00220011
  • 281853Z AUTO 01020G29KT 5SM -RA BR OVC009 03/01 A2989 RMK AO2 PK WND 01029/1845 CIG 008V013 SLP125 P0006 T00280011

Expired Forecast.



MET'MAP, your aeronautical weather chart ! - Copyright ORBIFLY December 2007 - Disclaimer

ORBIFLY MET'MAP TEAM :

Programming & Development : Alexandra Zaïnal
Concept & original design : Baudouin d'Aumeries
Assistance for programming : Marc-Olivier Méhu
Technical & hardware support : Manuel Goepfert

Contact : metmap@orbifly.com




SOURCES & CREDITS :

   NOAA       Earth
Advisory